Time;durP1;ratioP1;P1;durP2;ratioP2;P2;SDS_P1;SDS_P2;PMS_P1;PMS_P2;Temp;Humidity;BMP_temperature;BMP_pressure;BME280_temperature;BME280_humidity;BME280_pressure;Samples;Min_cycle;Max_cycle;Signal;HPM_P1;HPM_P2
2023/12/24 00:00:47;;;;;;;6.33;1.13;;;9.10;99.90;;;;;;5094187;28;20044;-63
2023/12/24 00:03:13;;;;;;;4.43;1.00;;;9.10;99.90;;;;;;5094324;28;20048;-60
2023/12/24 00:05:39;;;;;;;5.03;1.53;;;9.10;99.90;;;;;;5094242;28;20546;-62
2023/12/24 00:08:05;;;;;;;3.67;0.90;;;9.10;99.90;;;;;;5094254;28;20452;-60
2023/12/24 00:10:30;;;;;;;5.20;1.40;;;9.10;99.90;;;;;;5094343;28;20052;-61
2023/12/24 00:12:56;;;;;;;5.20;1.17;;;9.10;99.90;;;;;;5094004;28;20093;-64
2023/12/24 00:15:22;;;;;;;6.30;1.30;;;9.10;99.90;;;;;;5093060;28;20048;-61
2023/12/24 00:17:47;;;;;;;4.60;1.13;;;9.10;99.90;;;;;;5094040;28;20043;-63
2023/12/24 00:20:13;;;;;;;6.77;1.03;;;9.10;99.90;;;;;;5094052;28;20051;-66
2023/12/24 00:22:39;;;;;;;12.27;1.33;;;9.10;99.90;;;;;;5093596;28;20146;-63
2023/12/24 00:25:05;;;;;;;7.97;1.35;;;9.10;99.90;;;;;;5093920;28;20155;-60
2023/12/24 00:27:31;;;;;;;;;;;9.10;99.90;;;;;;5094409;28;20056;-62
2023/12/24 00:29:57;;;;;;;3.88;0.90;;;9.10;99.90;;;;;;5093836;28;20432;-62
2023/12/24 00:32:23;;;;;;;6.33;1.37;;;9.10;99.90;;;;;;5093839;28;20386;-61
2023/12/24 00:34:48;;;;;;;3.50;1.07;;;9.10;99.90;;;;;;5093100;28;20503;-63
2023/12/24 00:37:14;;;;;;;9.03;2.80;;;9.20;99.90;;;;;;5094085;28;20479;-61
2023/12/24 00:39:40;;;;;;;6.53;1.13;;;9.20;99.90;;;;;;5093954;28;20428;-62
2023/12/24 00:42:05;;;;;;;9.63;1.60;;;9.20;99.90;;;;;;5093558;28;20491;-60
2023/12/24 00:44:31;;;;;;;7.20;1.27;;;9.20;99.90;;;;;;5093647;28;20044;-62
2023/12/24 00:46:57;;;;;;;4.63;1.37;;;9.20;99.90;;;;;;5093925;28;20048;-61
2023/12/24 00:49:24;;;;;;;7.23;1.43;;;9.20;99.90;;;;;;5093682;28;20051;-62
2023/12/24 00:51:51;;;;;;;7.05;1.20;;;9.20;99.90;;;;;;5093026;28;20089;-61
2023/12/24 00:54:17;;;;;;;7.45;0.98;;;9.20;99.90;;;;;;5093659;28;20048;-60
2023/12/24 00:56:43;;;;;;;6.67;1.47;;;9.20;99.90;;;;;;5093551;28;20391;-62
2023/12/24 00:59:08;;;;;;;6.53;1.30;;;9.20;99.90;;;;;;5092542;28;20052;-61
2023/12/24 01:01:34;;;;;;;6.40;2.03;;;9.20;99.90;;;;;;5092529;28;20062;-60
2023/12/24 01:03:59;;;;;;;5.60;1.60;;;9.20;99.90;;;;;;5093903;28;20048;-60
2023/12/24 01:06:25;;;;;;;3.37;0.90;;;9.10;99.90;;;;;;5093754;28;20483;-61
2023/12/24 01:08:51;;;;;;;4.80;0.90;;;9.10;99.90;;;;;;5093484;28;20040;-61
2023/12/24 01:11:16;;;;;;;5.97;1.17;;;9.10;99.90;;;;;;5093463;28;20040;-62
2023/12/24 01:13:42;;;;;;;5.47;1.47;;;9.10;99.90;;;;;;5093429;28;20086;-62
2023/12/24 01:16:08;;;;;;;3.50;0.90;;;9.10;99.90;;;;;;5093687;28;20047;-61
2023/12/24 01:18:33;;;;;;;3.87;1.07;;;9.10;99.90;;;;;;5093405;28;20048;-62
2023/12/24 01:20:59;;;;;;;4.07;0.90;;;9.10;99.90;;;;;;5093306;28;20531;-62
2023/12/24 01:23:24;;;;;;;5.27;0.97;;;9.10;99.90;;;;;;5093286;28;20064;-62
2023/12/24 01:25:51;;;;;;;5.23;0.97;;;9.10;99.90;;;;;;5093273;28;20040;-60
2023/12/24 01:28:17;;;;;;;4.45;0.90;;;9.10;99.90;;;;;;5093282;28;20380;-63
2023/12/24 01:30:42;;;;;;;9.23;2.07;;;9.10;99.90;;;;;;5093055;28;20054;-61
2023/12/24 01:33:08;;;;;;;5.83;1.30;;;9.10;99.90;;;;;;5092105;28;20190;-61
2023/12/24 01:35:34;;;;;;;7.73;1.20;;;9.10;99.90;;;;;;5092293;28;20067;-62
2023/12/24 01:37:59;;;;;;;5.93;1.03;;;9.10;99.90;;;;;;5093067;28;20044;-61
2023/12/24 01:40:25;;;;;;;7.43;1.13;;;9.10;99.90;;;;;;5093231;28;20044;-64
2023/12/24 01:42:51;;;;;;;9.17;1.20;;;9.10;99.90;;;;;;5093069;28;20036;-61
2023/12/24 01:45:16;;;;;;;6.73;2.23;;;9.20;99.90;;;;;;5093297;28;20123;-63
2023/12/24 01:47:43;;;;;;;7.37;1.20;;;9.10;99.90;;;;;;5095686;28;20044;-64
2023/12/24 01:50:10;;;;;;;3.80;1.00;;;9.10;99.90;;;;;;5096778;28;20078;-62
2023/12/24 01:52:36;;;;;;;4.40;1.67;;;9.20;99.90;;;;;;5096724;28;20082;-62
2023/12/24 01:55:02;;;;;;;4.38;0.93;;;9.10;99.90;;;;;;5096801;28;20198;-60
2023/12/24 01:57:30;;;;;;;4.53;1.13;;;9.20;99.90;;;;;;5096403;28;20458;-61
2023/12/24 01:59:57;;;;;;;3.78;0.80;;;9.20;99.90;;;;;;5096882;28;20051;-60
2023/12/24 02:02:27;;;;;;;5.70;1.17;;;9.20;99.90;;;;;;5096264;28;20518;-62
2023/12/24 02:04:53;;;;;;;2.35;0.77;;;9.10;99.90;;;;;;5096495;28;20105;-63
2023/12/24 02:07:20;;;;;;;3.77;0.80;;;9.10;99.90;;;;;;5095527;28;20430;-63
2023/12/24 02:09:46;;;;;;;1.95;0.57;;;9.10;99.90;;;;;;5095528;28;20165;-62
2023/12/24 02:12:11;;;;;;;4.13;1.07;;;9.10;99.90;;;;;;5096290;28;20122;-63
2023/12/24 02:14:37;;;;;;;6.90;1.27;;;9.10;99.90;;;;;;5096279;28;20144;-64
2023/12/24 02:17:05;;;;;;;2.93;0.63;;;9.10;99.90;;;;;;5096291;28;20044;-66
2023/12/24 02:19:31;;;;;;;2.95;0.77;;;9.10;99.90;;;;;;5096184;28;20051;-62
2023/12/24 02:21:56;;;;;;;3.28;0.70;;;9.20;99.90;;;;;;5095975;28;20497;-64
2023/12/24 02:24:22;;;;;;;2.90;1.13;;;9.10;99.90;;;;;;5095984;28;20056;-63
2023/12/24 02:26:52;;;;;;;2.00;0.83;;;9.10;99.90;;;;;;5095968;28;20083;-60
2023/12/24 02:29:27;;;;;;;4.95;1.05;;;9.10;99.90;;;;;;5096316;28;20083;-61
2023/12/24 02:32:00;;;;;;;3.17;0.90;;;9.20;99.90;;;;;;5096353;28;20044;-63
2023/12/24 02:34:27;;;;;;;4.60;1.08;;;9.20;99.90;;;;;;5096265;28;20091;-62
2023/12/24 02:36:53;;;;;;;3.13;0.85;;;9.20;99.90;;;;;;5095977;28;20048;-62
2023/12/24 02:39:19;;;;;;;4.00;1.10;;;9.20;99.90;;;;;;5095584;28;20131;-63
2023/12/24 02:41:44;;;;;;;4.17;0.70;;;9.10;99.90;;;;;;5096326;28;20450;-61
2023/12/24 02:44:11;;;;;;;4.07;1.00;;;9.20;99.90;;;;;;5095089;28;20044;-63
2023/12/24 02:46:37;;;;;;;5.10;1.00;;;9.20;99.90;;;;;;5095783;28;20048;-61
2023/12/24 02:49:02;;;;;;;3.67;1.00;;;9.20;99.90;;;;;;5095708;28;20418;-63
2023/12/24 02:51:28;;;;;;;5.17;0.87;;;9.20;99.90;;;;;;5095647;28;20483;-61
2023/12/24 02:53:54;;;;;;;4.97;0.90;;;9.20;99.90;;;;;;5095340;28;20079;-60
2023/12/24 02:56:20;;;;;;;6.10;1.10;;;9.20;99.90;;;;;;5095683;28;20055;-65
2023/12/24 02:58:45;;;;;;;7.17;1.20;;;9.20;99.90;;;;;;5094863;28;20094;-63
2023/12/24 03:01:11;;;;;;;5.70;1.30;;;9.20;99.90;;;;;;5095190;28;20063;-59
2023/12/24 03:03:37;;;;;;;4.67;0.87;;;9.30;99.90;;;;;;5095515;28;20105;-62
2023/12/24 03:06:03;;;;;;;3.13;0.93;;;9.30;99.90;;;;;;5095253;28;20052;-66
2023/12/24 03:08:28;;;;;;;4.57;0.93;;;9.30;99.90;;;;;;5095033;28;20055;-62
2023/12/24 03:10:54;;;;;;;6.33;1.30;;;9.30;99.90;;;;;;5095590;28;20698;-62
2023/12/24 03:13:20;;;;;;;6.27;1.40;;;9.30;99.90;;;;;;5095184;28;20036;-60
2023/12/24 03:15:45;;;;;;;3.00;0.80;;;9.30;99.90;;;;;;5094014;28;20044;-62
2023/12/24 03:18:11;;;;;;;3.70;1.27;;;9.30;99.90;;;;;;5095014;28;20047;-61
2023/12/24 03:20:36;;;;;;;4.40;1.00;;;9.30;99.90;;;;;;5093972;28;20093;-63
2023/12/24 03:23:03;;;;;;;4.33;0.97;;;9.30;99.90;;;;;;5094511;28;20114;-62
2023/12/24 03:25:28;;;;;;;5.15;0.93;;;9.30;99.90;;;;;;5095454;28;20105;-63
2023/12/24 03:27:54;;;;;;;5.17;1.10;;;9.30;99.90;;;;;;5094957;28;20433;-62
2023/12/24 03:30:20;;;;;;;4.57;1.50;;;9.30;99.90;;;;;;5094176;28;20503;-65
2023/12/24 03:32:46;;;;;;;4.67;0.60;;;9.30;99.90;;;;;;5094655;28;20119;-66
2023/12/24 03:35:11;;;;;;;4.03;0.73;;;9.40;99.90;;;;;;5094776;28;20127;-63
2023/12/24 03:37:37;;;;;;;2.57;0.73;;;9.40;99.90;;;;;;5094854;28;20118;-61
2023/12/24 03:40:03;;;;;;;3.07;0.70;;;9.40;99.90;;;;;;5094485;28;20055;-63
2023/12/24 03:42:29;;;;;;;3.77;1.10;;;9.40;99.90;;;;;;5094599;28;20101;-62
2023/12/24 03:44:54;;;;;;;4.37;0.63;;;9.40;99.90;;;;;;5094651;28;20048;-63
2023/12/24 03:47:20;;;;;;;4.63;0.93;;;9.40;99.90;;;;;;5094618;28;20048;-62
2023/12/24 03:49:46;;;;;;;6.57;1.07;;;9.40;99.90;;;;;;5094520;28;20505;-66
2023/12/24 03:52:11;;;;;;;3.10;0.90;;;9.40;99.90;;;;;;5094290;28;20039;-61
2023/12/24 03:54:37;;;;;;;3.20;0.77;;;9.40;99.90;;;;;;5094230;28;20044;-65
2023/12/24 03:57:03;;;;;;;2.30;0.63;;;9.50;99.90;;;;;;5093572;28;20040;-62
2023/12/24 03:59:30;;;;;;;2.40;0.43;;;9.50;99.90;;;;;;5094341;28;20222;-63
2023/12/24 04:01:55;;;;;;;4.63;0.75;;;9.40;99.90;;;;;;5094131;28;20043;-62
2023/12/24 04:04:21;;;;;;;4.43;1.00;;;9.50;99.90;;;;;;5094065;28;20052;-61
2023/12/24 04:06:47;;;;;;;4.27;0.70;;;9.50;99.90;;;;;;5093239;28;20052;-63
2023/12/24 04:09:12;;;;;;;2.40;0.67;;;9.50;99.90;;;;;;5093897;28;20048;-62
2023/12/24 04:11:38;;;;;;;2.40;0.70;;;9.50;99.90;;;;;;5094257;28;20127;-61
2023/12/24 04:14:04;;;;;;;1.87;0.60;;;9.50;99.90;;;;;;5094145;28;20108;-61
2023/12/24 04:16:29;;;;;;;2.33;0.80;;;9.50;99.90;;;;;;5092741;28;20051;-63
2023/12/24 04:18:55;;;;;;;4.13;1.10;;;9.50;99.90;;;;;;5094008;28;20036;-63
2023/12/24 04:21:21;;;;;;;2.03;0.70;;;9.50;99.90;;;;;;5092701;28;20040;-61
2023/12/24 04:23:46;;;;;;;2.70;0.70;;;9.60;99.90;;;;;;5093674;28;20079;-63
2023/12/24 04:26:12;;;;;;;4.53;0.80;;;9.60;99.90;;;;;;5093941;28;20044;-62
2023/12/24 04:28:38;;;;;;;1.53;0.83;;;9.60;99.90;;;;;;5093888;28;20487;-62
2023/12/24 04:31:03;;;;;;;3.23;0.93;;;9.60;99.90;;;;;;5092992;28;20089;-62
2023/12/24 04:33:29;;;;;;;0.87;0.40;;;9.60;99.90;;;;;;5092726;28;20043;-64
2023/12/24 04:35:55;;;;;;;1.92;0.55;;;9.60;99.90;;;;;;5093931;28;20047;-64
2023/12/24 04:38:21;;;;;;;2.90;0.50;;;9.60;99.90;;;;;;5093548;28;20052;-64
2023/12/24 04:40:46;;;;;;;2.13;0.50;;;9.60;99.90;;;;;;5093590;28;20050;-63
2023/12/24 04:43:12;;;;;;;1.70;0.50;;;9.60;99.90;;;;;;5093997;28;20051;-60
2023/12/24 04:45:38;;;;;;;3.03;0.53;;;9.60;99.90;;;;;;5093686;28;20131;-64
2023/12/24 04:48:04;;;;;;;1.57;0.40;;;9.60;99.90;;;;;;5093581;28;20044;-61
2023/12/24 04:50:30;;;;;;;1.50;0.55;;;9.60;99.90;;;;;;5093721;28;20063;-63
2023/12/24 04:52:55;;;;;;;2.38;0.70;;;9.60;99.90;;;;;;5093383;28;20398;-63
2023/12/24 04:55:21;;;;;;;1.63;0.40;;;9.60;99.90;;;;;;5093633;28;20051;-63
2023/12/24 04:57:47;;;;;;;1.70;0.57;;;9.60;99.90;;;;;;5093619;28;20059;-64
2023/12/24 05:00:13;;;;;;;1.70;0.40;;;9.60;99.90;;;;;;5093571;28;20052;-63
2023/12/24 05:02:38;;;;;;;2.58;0.50;;;9.70;99.90;;;;;;5092307;28;20072;-63
2023/12/24 05:05:04;;;;;;;1.23;0.47;;;9.70;99.90;;;;;;5093448;28;20137;-63
2023/12/24 05:07:30;;;;;;;1.02;0.40;;;9.70;99.90;;;;;;5093462;28;20056;-62
2023/12/24 05:09:56;;;;;;;1.55;0.40;;;9.70;99.90;;;;;;5075742;28;20052;-61
2023/12/24 05:12:22;;;;;;;3.00;0.43;;;9.70;99.90;;;;;;5093794;28;20040;-60
2023/12/24 05:14:47;;;;;;;0.50;0.30;;;9.70;99.90;;;;;;5093539;28;20040;-62
2023/12/24 05:17:13;;;;;;;1.43;0.50;;;9.70;99.90;;;;;;5093305;28;20090;-63
2023/12/24 05:19:39;;;;;;;2.23;0.70;;;9.70;99.90;;;;;;5093403;28;20086;-60
2023/12/24 05:22:04;;;;;;;2.10;0.50;;;9.70;99.90;;;;;;5096245;28;20471;-63
2023/12/24 05:24:31;;;;;;;4.10;0.70;;;9.70;99.90;;;;;;5097271;28;20498;-63
2023/12/24 05:26:57;;;;;;;1.90;0.60;;;9.80;99.90;;;;;;5097416;28;20087;-66
2023/12/24 05:29:22;;;;;;;2.83;0.53;;;9.80;99.90;;;;;;5096168;28;20040;-68
2023/12/24 05:31:48;;;;;;;3.97;0.87;;;9.80;99.90;;;;;;5097268;28;20044;-62
2023/12/24 05:34:14;;;;;;;5.27;1.13;;;9.80;99.90;;;;;;5097071;28;20054;-63
2023/12/24 05:36:40;;;;;;;3.88;0.88;;;9.80;99.90;;;;;;5096889;28;20648;-63
2023/12/24 05:39:06;;;;;;;4.83;0.87;;;9.80;99.90;;;;;;5097154;28;20044;-64
2023/12/24 05:41:32;;;;;;;2.83;0.68;;;9.80;99.90;;;;;;5096844;28;20040;-62
2023/12/24 05:43:58;;;;;;;4.28;0.82;;;9.80;99.90;;;;;;5097215;28;20044;-64
2023/12/24 05:46:24;;;;;;;4.10;0.80;;;9.80;99.90;;;;;;5096878;28;20048;-62
2023/12/24 05:48:50;;;;;;;4.90;1.20;;;9.80;99.90;;;;;;5096944;28;20080;-66
2023/12/24 05:51:16;;;;;;;2.77;0.87;;;9.90;99.90;;;;;;5096812;28;20521;-63
2023/12/24 05:53:42;;;;;;;6.13;1.00;;;9.90;99.90;;;;;;5097115;28;20129;-62
2023/12/24 05:56:10;;;;;;;4.87;1.03;;;9.90;99.90;;;;;;5096789;28;20079;-62
2023/12/24 05:58:36;;;;;;;3.00;1.08;;;9.90;99.90;;;;;;5096656;28;20100;-63
2023/12/24 06:01:02;;;;;;;3.70;1.00;;;9.90;99.90;;;;;;5096491;28;20135;-62
2023/12/24 06:03:27;;;;;;;5.33;1.03;;;9.90;99.90;;;;;;5096782;28;20040;-63
2023/12/24 06:05:53;;;;;;;4.30;1.33;;;10.00;99.90;;;;;;5096501;28;20051;-63
2023/12/24 06:08:19;;;;;;;5.90;1.30;;;10.00;99.90;;;;;;5095405;28;20047;-62
2023/12/24 06:10:45;;;;;;;8.15;1.80;;;9.90;99.90;;;;;;5096462;28;20051;-63
2023/12/24 06:13:11;;;;;;;3.97;1.00;;;10.00;99.90;;;;;;5096438;28;20505;-61
2023/12/24 06:15:37;;;;;;;3.55;1.30;;;10.00;99.90;;;;;;5096349;28;20079;-61
2023/12/24 06:18:04;;;;;;;4.10;1.27;;;10.00;99.90;;;;;;5096282;28;20086;-66
2023/12/24 06:20:32;;;;;;;3.50;1.40;;;10.00;99.90;;;;;;5096226;28;20554;-63
2023/12/24 06:23:00;;;;;;;5.63;1.33;;;10.00;99.90;;;;;;5096047;28;20051;-62
2023/12/24 06:25:26;;;;;;;7.63;1.35;;;10.00;99.90;;;;;;5096688;28;20048;-63
2023/12/24 06:27:52;;;;;;;7.33;1.07;;;10.00;99.90;;;;;;5096331;28;20082;-62
2023/12/24 06:30:18;;;;;;;5.97;1.70;;;10.00;99.90;;;;;;5096083;28;20055;-62
2023/12/24 06:32:45;;;;;;;5.20;1.33;;;10.00;99.90;;;;;;5094602;28;20415;-62
2023/12/24 06:35:11;;;;;;;6.28;1.23;;;10.10;99.90;;;;;;5095810;28;20372;-63
2023/12/24 06:37:36;;;;;;;5.53;1.33;;;10.10;99.90;;;;;;5096044;28;20130;-62
2023/12/24 06:40:03;;;;;;;4.77;0.97;;;10.00;99.90;;;;;;5094794;28;20392;-63
2023/12/24 06:42:29;;;;;;;4.47;1.17;;;10.10;99.90;;;;;;5095728;28;20082;-62
2023/12/24 06:44:55;;;;;;;4.97;1.10;;;10.10;99.90;;;;;;5096008;28;20475;-62
2023/12/24 06:47:20;;;;;;;4.40;0.80;;;10.10;99.90;;;;;;5095737;28;20043;-62
2023/12/24 06:49:46;;;;;;;2.17;0.80;;;10.10;99.90;;;;;;5094618;28;20079;-62
2023/12/24 06:52:12;;;;;;;5.43;1.03;;;10.10;99.90;;;;;;5095733;28;20128;-62
2023/12/24 06:54:38;;;;;;;4.65;1.35;;;10.10;99.90;;;;;;5095692;28;20047;-60
2023/12/24 06:57:06;;;;;;;7.23;0.70;;;10.10;99.90;;;;;;5095594;28;20044;-63
2023/12/24 06:59:31;;;;;;;4.93;0.88;;;10.10;99.90;;;;;;5095620;28;20076;-63
2023/12/24 07:01:57;;;;;;;3.50;1.00;;;10.20;99.90;;;;;;5095475;28;20490;-64
2023/12/24 07:04:23;;;;;;;5.97;1.03;;;10.20;99.90;;;;;;5095266;28;20047;-61
2023/12/24 07:06:48;;;;;;;4.53;0.90;;;10.10;99.90;;;;;;5095437;28;20136;-61
2023/12/24 07:09:14;;;;;;;3.77;1.00;;;10.20;99.90;;;;;;5095368;28;20048;-62
2023/12/24 07:11:40;;;;;;;4.53;0.90;;;10.20;99.90;;;;;;5095236;28;20090;-63
2023/12/24 07:14:05;;;;;;;4.20;1.57;;;10.20;99.90;;;;;;5095266;28;20089;-61
2023/12/24 07:16:31;;;;;;;3.67;0.90;;;10.20;99.90;;;;;;5095034;28;20047;-62
2023/12/24 07:18:57;;;;;;;7.30;1.17;;;10.20;99.90;;;;;;5095108;28;20044;-62
2023/12/24 07:21:23;;;;;;;4.97;1.13;;;10.20;99.90;;;;;;5094138;28;20055;-63
2023/12/24 07:23:49;;;;;;;3.67;1.17;;;10.30;99.90;;;;;;5094944;28;20056;-61
2023/12/24 07:26:15;;;;;;;7.27;1.10;;;10.30;99.90;;;;;;5095034;28;20048;-63
2023/12/24 07:28:41;;;;;;;4.57;1.27;;;10.30;99.90;;;;;;5094973;28;20083;-63
2023/12/24 07:31:06;;;;;;;4.83;1.60;;;10.30;99.90;;;;;;5095067;28;20040;-62
2023/12/24 07:33:32;;;;;;;4.97;1.10;;;10.30;99.90;;;;;;5094793;28;20051;-61
2023/12/24 07:35:58;;;;;;;4.72;0.90;;;10.40;99.90;;;;;;5094576;28;20048;-62
2023/12/24 07:38:29;;;;;;;3.70;0.90;;;10.40;99.90;;;;;;5093923;28;20387;-63
2023/12/24 07:40:55;;;;;;;4.75;0.82;;;10.40;99.90;;;;;;5094719;28;20563;-63
2023/12/24 07:43:20;;;;;;;4.30;0.88;;;10.40;99.90;;;;;;5094211;28;20483;-63
2023/12/24 07:45:46;;;;;;;5.90;0.80;;;10.40;99.90;;;;;;5094784;28;20051;-61
2023/12/24 07:48:12;;;;;;;5.07;1.63;;;10.40;99.90;;;;;;5094424;28;20048;-60
2023/12/24 07:50:37;;;;;;;8.50;1.67;;;10.40;99.90;;;;;;5094750;28;20126;-64
2023/12/24 07:53:03;;;;;;;10.20;1.77;;;10.40;99.90;;;;;;5094760;28;20040;-65
2023/12/24 07:55:29;;;;;;;6.43;1.30;;;10.40;99.90;;;;;;5094675;28;20506;-62
2023/12/24 07:57:55;;;;;;;3.25;1.05;;;10.40;99.90;;;;;;5094370;28;20094;-62
2023/12/24 08:00:21;;;;;;;7.87;1.40;;;10.40;99.90;;;;;;5094253;28;20051;-63
2023/12/24 08:02:47;;;;;;;8.30;1.55;;;10.50;99.90;;;;;;5094263;28;20075;-62
2023/12/24 08:05:13;;;;;;;6.43;1.35;;;10.50;99.90;;;;;;5093369;28;20056;-63
2023/12/24 08:07:39;;;;;;;6.47;1.07;;;10.50;99.90;;;;;;5094333;28;20051;-62
2023/12/24 08:10:07;;;;;;;8.38;1.10;;;10.50;99.90;;;;;;5094297;28;20048;-64
2023/12/24 08:12:33;;;;;;;5.60;1.30;;;10.50;99.90;;;;;;5094133;28;20040;-64
2023/12/24 08:14:58;;;;;;;2.83;1.08;;;10.50;99.90;;;;;;5094173;28;20058;-62
2023/12/24 08:17:24;;;;;;;5.90;1.23;;;10.50;99.90;;;;;;5093919;28;20108;-64
2023/12/24 08:19:50;;;;;;;8.00;1.43;;;10.50;99.90;;;;;;5094127;28;20083;-63
2023/12/24 08:22:15;;;;;;;5.43;1.40;;;10.50;99.90;;;;;;5092902;28;20044;-65
2023/12/24 08:24:41;;;;;;;5.00;1.17;;;10.50;99.90;;;;;;5093659;28;20056;-62
2023/12/24 08:27:07;;;;;;;5.03;1.40;;;10.50;99.90;;;;;;5094011;28;20364;-63
2023/12/24 08:29:32;;;;;;;7.30;1.20;;;10.50;99.90;;;;;;5093995;28;20063;-65
2023/12/24 08:31:58;;;;;;;5.67;1.00;;;10.50;99.90;;;;;;5093849;28;20118;-63
2023/12/24 08:34:24;;;;;;;7.40;1.60;;;10.50;99.90;;;;;;5093928;28;20045;-64
2023/12/24 08:36:49;;;;;;;6.07;1.33;;;10.50;99.90;;;;;;5093978;28;20356;-65
2023/12/24 08:39:15;;;;;;;5.57;1.40;;;10.60;99.90;;;;;;5093877;28;20368;-62
2023/12/24 08:41:41;;;;;;;6.20;1.20;;;10.60;99.90;;;;;;5093729;28;20302;-63
2023/12/24 08:44:07;;;;;;;7.85;1.20;;;10.50;99.90;;;;;;5093763;28;20052;-62
2023/12/24 08:46:32;;;;;;;5.73;1.20;;;10.60;99.90;;;;;;5093585;28;20044;-65
2023/12/24 08:48:58;;;;;;;5.73;1.00;;;10.60;99.90;;;;;;5093803;28;20054;-64
2023/12/24 08:51:24;;;;;;;5.38;1.75;;;10.60;99.90;;;;;;5093748;28;20079;-60
2023/12/24 08:53:50;;;;;;;5.53;1.30;;;10.60;99.90;;;;;;5094023;28;20457;-62
2023/12/24 08:56:15;;;;;;;5.27;1.00;;;10.60;99.90;;;;;;5095657;28;20070;-65
2023/12/24 08:58:41;;;;;;;2.67;1.20;;;10.60;99.90;;;;;;5097880;28;20122;-62
2023/12/24 09:01:07;;;;;;;8.60;1.43;;;10.60;99.90;;;;;;5097725;28;20048;-61
2023/12/24 09:03:32;;;;;;;3.73;1.33;;;10.60;99.90;;;;;;5097778;28;20048;-61
2023/12/24 09:05:58;;;;;;;10.23;1.50;;;10.70;99.90;;;;;;5098094;28;20048;-62
2023/12/24 09:08:24;;;;;;;6.20;1.10;;;10.70;99.90;;;;;;5097892;28;20401;-62
2023/12/24 09:10:49;;;;;;;8.50;1.30;;;10.70;99.90;;;;;;5097613;28;20406;-60
2023/12/24 09:13:15;;;;;;;6.17;1.40;;;10.70;99.90;;;;;;5097546;28;20043;-62
2023/12/24 09:15:41;;;;;;;7.47;1.50;;;10.70;99.90;;;;;;5097403;28;20051;-62
2023/12/24 09:18:06;;;;;;;8.47;1.40;;;10.80;99.90;;;;;;5097600;28;20048;-64
2023/12/24 09:20:32;;;;;;;6.27;1.23;;;10.70;99.90;;;;;;5097501;28;20040;-62
2023/12/24 09:22:57;;;;;;;5.53;0.93;;;10.70;99.90;;;;;;5097289;28;20040;-61
2023/12/24 09:25:23;;;;;;;7.63;1.23;;;10.70;99.90;;;;;;5097631;28;20412;-61
2023/12/24 09:27:49;;;;;;;5.20;1.03;;;10.80;99.90;;;;;;5097179;28;20101;-63
2023/12/24 09:30:14;;;;;;;8.97;2.03;;;10.80;99.90;;;;;;5096983;28;20048;-63
2023/12/24 09:32:43;;;;;;;7.50;1.00;;;10.80;99.90;;;;;;5097002;28;20135;-62
2023/12/24 09:35:09;;;;;;;9.40;2.17;;;10.80;99.90;;;;;;5097676;28;20104;-61
2023/12/24 09:37:34;;;;;;;5.47;1.35;;;10.80;99.90;;;;;;5097098;28;20402;-62
2023/12/24 09:40:00;;;;;;;4.07;1.27;;;10.80;99.90;;;;;;5096925;28;20039;-62
2023/12/24 09:42:26;;;;;;;5.10;1.40;;;10.90;99.90;;;;;;5096904;28;20294;-62
2023/12/24 09:44:51;;;;;;;9.00;1.60;;;10.90;99.90;;;;;;5096777;28;20044;-62
2023/12/24 09:47:17;;;;;;;6.53;1.20;;;10.90;99.90;;;;;;5097032;28;20100;-61
2023/12/24 09:49:43;;;;;;;8.40;2.65;;;10.90;99.90;;;;;;5096975;28;20051;-63
2023/12/24 09:52:09;;;;;;;8.07;1.87;;;11.00;99.90;;;;;;5097140;28;20051;-61
2023/12/24 09:54:35;;;;;;;9.47;1.17;;;11.00;99.90;;;;;;5096792;28;20069;-61
2023/12/24 09:57:01;;;;;;;6.13;1.23;;;11.00;99.90;;;;;;5096770;28;20040;-62
2023/12/24 09:59:26;;;;;;;7.23;1.20;;;11.00;99.90;;;;;;5096612;28;20050;-61
2023/12/24 10:01:52;;;;;;;6.43;1.20;;;11.00;99.90;;;;;;5096413;28;20040;-62
2023/12/24 10:04:17;;;;;;;5.47;1.20;;;11.00;99.90;;;;;;5096802;28;20036;-62
2023/12/24 10:06:56;;;;;;;5.90;1.33;;;11.00;99.90;;;;;;5096480;28;20040;-61
2023/12/24 10:09:23;;;;;;;8.75;1.40;;;11.00;99.90;;;;;;5095529;28;20460;-59
2023/12/24 10:12:05;;;;;;;9.38;1.95;;;11.10;99.90;;;;;;5096267;28;20054;-64
2023/12/24 10:14:31;;;;;;;11.15;1.38;;;11.00;99.90;;;;;;5096442;28;20040;-62
2023/12/24 10:17:00;;;;;;;4.55;0.98;;;11.10;99.90;;;;;;5096408;28;20048;-63
2023/12/24 10:19:28;;;;;;;3.33;1.40;;;11.10;99.90;;;;;;5096374;28;20056;-63
2023/12/24 10:22:04;;;;;;;4.60;1.35;;;11.10;99.90;;;;;;5096158;28;20040;-63
2023/12/24 10:24:31;;;;;;;8.52;1.60;;;11.10;99.90;;;;;;5096301;28;20495;-61
2023/12/24 10:27:04;;;;;;;;;;;11.10;99.90;;;;;;5096702;28;20070;-62
2023/12/24 10:29:30;;;;;;;6.78;1.77;;;11.10;99.90;;;;;;5096247;28;20011;-62
2023/12/24 10:31:56;;;;;;;8.17;1.43;;;11.10;99.90;;;;;;5094893;28;20122;-61
2023/12/24 10:34:22;;;;;;;7.23;1.17;;;11.20;99.90;;;;;;5095956;28;20113;-62
2023/12/24 10:36:48;;;;;;;6.75;1.45;;;11.20;99.90;;;;;;5096023;28;20070;-62
2023/12/24 10:39:18;;;;;;;8.00;1.67;;;11.20;99.90;;;;;;5095948;28;20475;-62
2023/12/24 10:41:43;;;;;;;3.80;1.15;;;11.20;99.90;;;;;;5095827;28;20301;-61
2023/12/24 10:44:09;;;;;;;7.20;0.80;;;11.30;99.90;;;;;;5096378;28;20044;-62
2023/12/24 10:46:35;;;;;;;3.83;0.80;;;11.30;99.90;;;;;;5095901;28;20048;-61
2023/12/24 10:49:01;;;;;;;4.67;0.83;;;11.30;99.90;;;;;;5095667;28;20554;-61
2023/12/24 10:51:26;;;;;;;8.20;1.30;;;11.40;99.90;;;;;;5095638;28;20075;-62
2023/12/24 10:53:53;;;;;;;7.80;1.00;;;11.40;99.90;;;;;;5095430;28;20040;-59
2023/12/24 10:56:33;;;;;;;;;;;11.40;99.90;;;;;;5096067;28;20127;-63
2023/12/24 10:59:19;;;;;;;4.47;1.10;;;11.40;99.90;;;;;;5095155;28;20006;-61
2023/12/24 11:01:51;;;;;;;6.18;1.08;;;11.50;99.90;;;;;;5095484;28;20433;-61
2023/12/24 11:04:45;;;;;;;7.35;1.58;;;11.50;99.90;;;;;;5095442;28;20044;-61
2023/12/24 11:07:46;;;;;;;5.07;0.80;;;11.60;99.90;;;;;;5094509;28;20056;-63
2023/12/24 11:10:39;;;;;;;3.15;0.93;;;11.60;99.90;;;;;;5095417;28;20052;-62
2023/12/24 11:13:28;;;;;;;4.55;1.25;;;11.70;99.90;;;;;;5095789;28;20048;-62
2023/12/24 11:15:54;;;;;;;6.85;1.20;;;11.70;99.90;;;;;;5095152;28;20427;-62
2023/12/24 11:18:38;;;;;;;6.07;0.93;;;11.80;99.90;;;;;;5094268;28;20040;-60
2023/12/24 11:21:04;;;;;;;4.60;1.35;;;11.70;99.90;;;;;;5094812;28;20044;-62
2023/12/24 11:23:30;;;;;;;4.33;1.17;;;11.80;99.90;;;;;;5095030;28;20052;-61
2023/12/24 11:25:55;;;;;;;6.23;1.17;;;11.70;99.90;;;;;;5095127;28;20101;-61
2023/12/24 11:28:27;;;;;;;2.83;1.00;;;11.70;99.90;;;;;;5095089;28;20071;-62
2023/12/24 11:30:53;;;;;;;4.70;1.00;;;11.80;99.90;;;;;;5094850;28;20794;-63
2023/12/24 11:33:27;;;;;;;2.63;0.80;;;11.70;99.90;;;;;;5094587;28;20048;-59
2023/12/24 11:36:00;;;;;;;7.00;1.08;;;11.70;99.90;;;;;;5094873;28;20051;-60
2023/12/24 11:38:41;;;;;;;5.40;1.20;;;11.70;99.90;;;;;;5094885;28;20052;-59
2023/12/24 11:41:15;;;;;;;3.83;0.70;;;11.70;99.90;;;;;;5095058;28;20142;-63
2023/12/24 11:44:00;;;;;;;3.65;0.75;;;11.70;99.90;;;;;;5094839;28;20090;-61
2023/12/24 11:46:28;;;;;;;4.93;0.85;;;11.70;99.90;;;;;;5094666;28;20044;-63
2023/12/24 11:48:57;;;;;;;4.03;1.00;;;11.70;99.90;;;;;;5094834;28;20036;-63
2023/12/24 11:51:24;;;;;;;8.98;1.92;;;11.70;99.90;;;;;;5094957;28;20097;-63
2023/12/24 11:54:03;;;;;;;6.93;1.40;;;11.70;99.90;;;;;;5094392;28;20429;-62
2023/12/24 11:56:30;;;;;;;6.18;1.00;;;11.70;99.90;;;;;;5094340;28;20044;-61
2023/12/24 11:58:58;;;;;;;6.22;0.82;;;11.70;99.90;;;;;;5094193;28;20519;-61
2023/12/24 12:01:25;;;;;;;6.00;1.20;;;11.80;99.90;;;;;;5094573;28;20491;-62
2023/12/24 12:03:59;;;;;;;7.35;1.00;;;11.80;99.90;;;;;;5094651;28;20048;-61
2023/12/24 12:06:32;;;;;;;8.30;1.63;;;11.80;99.90;;;;;;5094215;28;20082;-59
2023/12/24 12:09:04;;;;;;;4.55;1.67;;;11.80;99.90;;;;;;5093995;28;20048;-62
2023/12/24 12:11:30;;;;;;;3.88;0.70;;;11.80;99.90;;;;;;5094558;28;20395;-59
2023/12/24 12:13:56;;;;;;;7.03;1.52;;;11.90;99.90;;;;;;5094290;28;20120;-59
2023/12/24 12:16:21;;;;;;;5.77;0.80;;;11.90;99.90;;;;;;5094153;28;20475;-61
2023/12/24 12:18:47;;;;;;;4.67;0.73;;;11.90;99.90;;;;;;5093166;28;20051;-59
2023/12/24 12:21:13;;;;;;;4.00;0.83;;;11.90;99.90;;;;;;5093905;28;20055;-62
2023/12/24 12:23:39;;;;;;;4.37;1.30;;;11.90;99.90;;;;;;5093614;28;20089;-60
2023/12/24 12:26:06;;;;;;;10.48;1.00;;;11.90;99.90;;;;;;5093683;28;20056;-60
2023/12/24 12:28:32;;;;;;;6.07;1.23;;;11.90;99.90;;;;;;5094027;28;20113;-61
2023/12/24 12:30:58;;;;;;;3.40;0.80;;;11.90;99.90;;;;;;5093847;28;20483;-59
2023/12/24 12:33:24;;;;;;;3.25;1.08;;;11.90;99.90;;;;;;5093869;28;20039;-62
2023/12/24 12:35:49;;;;;;;3.93;0.90;;;11.90;99.90;;;;;;5093871;28;20077;-61
2023/12/24 12:38:15;;;;;;;5.87;1.27;;;11.90;99.90;;;;;;5093723;28;20079;-59
2023/12/24 12:40:41;;;;;;;7.03;1.27;;;11.90;99.90;;;;;;5093825;28;20102;-60
2023/12/24 12:43:08;;;;;;;5.57;1.07;;;11.90;99.90;;;;;;5093799;28;20044;-60
2023/12/24 12:45:34;;;;;;;7.50;0.93;;;11.90;99.90;;;;;;5093850;28;20194;-60
2023/12/24 12:48:00;;;;;;;;;;;12.00;99.90;;;;;;5094185;28;20495;-60
2023/12/24 12:50:26;;;;;;;7.72;1.23;;;12.00;99.90;;;;;;5093612;28;20024;-60